Time;durP1;ratioP1;P1;durP2;ratioP2;P2;SDS_P1;SDS_P2;PMS_P1;PMS_P2;Temp;Humidity;BMP_temperature;BMP_pressure;BME280_temperature;BME280_humidity;BME280_pressure;Samples;Min_cycle;Max_cycle;Signal;HPM_P1;HPM_P2
2022/12/06 00:01:08;;;;;;;15.68;9.48;;;;;;;;;;5012698;28;20089;-83
2022/12/06 00:03:34;;;;;;;12.25;8.55;;;;;;;;;;5012352;28;20097;-83
2022/12/06 00:06:11;;;;;;;10.88;8.18;;;;;;;;;;5012659;28;20109;-83
2022/12/06 00:08:38;;;;;;;13.18;8.63;;;;;;;;;;5012618;28;20061;-84
2022/12/06 00:11:05;;;;;;;13.77;9.48;;;;;;;;;;5012696;28;20436;-81
2022/12/06 00:13:31;;;;;;;18.58;11.00;;;;;;;;;;5012541;28;20022;-82
2022/12/06 00:16:00;;;;;;;18.38;10.68;;;;;;;;;;4994932;28;20120;-84
2022/12/06 00:18:26;;;;;;;16.15;9.90;;;;;;;;;;5012319;28;20026;-84
2022/12/06 00:20:52;;;;;;;13.48;8.98;;;;;;;;;;5012336;28;20030;-83
2022/12/06 00:23:18;;;;;;;13.30;9.52;;;;;;;;;;5012349;28;20036;-83
2022/12/06 00:25:44;;;;;;;14.43;9.02;;;;;;;;;;5012361;28;20393;-83
2022/12/06 00:28:10;;;;;;;11.52;8.50;;;;;;;;;;5012433;28;20018;-82
2022/12/06 00:30:36;;;;;;;15.85;10.35;;;;;;;;;;5012338;28;20033;-82
2022/12/06 00:33:02;;;;;;;16.33;9.27;;;;;;;;;;5019225;28;20020;-82
2022/12/06 00:35:28;;;;;;;12.25;8.07;;;;;;;;;;5020332;28;20477;-82
2022/12/06 00:37:55;;;;;;;11.77;7.53;;;;;;;;;;4992805;28;20110;-83
2022/12/06 00:40:21;;;;;;;14.27;9.18;;;;;;;;;;4989709;28;20094;-83
2022/12/06 00:42:47;;;;;;;11.10;7.53;;;;;;;;;;4992774;28;20105;-84
2022/12/06 00:45:13;;;;;;;10.35;7.45;;;;;;;;;;4991567;28;20027;-82
2022/12/06 00:47:39;;;;;;;12.90;8.48;;;;;;;;;;4992536;28;20033;-82
2022/12/06 00:50:05;;;;;;;12.30;8.38;;;;;;;;;;4992687;28;20485;-82
2022/12/06 00:52:31;;;;;;;12.45;7.97;;;;;;;;;;4992538;28;20037;-82
2022/12/06 00:54:57;;;;;;;11.80;7.35;;;;;;;;;;4992701;28;20425;-83
2022/12/06 00:57:23;;;;;;;19.48;15.23;;;;;;;;;;4992563;28;20022;-84
2022/12/06 00:59:49;;;;;;;21.83;14.70;;;;;;;;;;4992606;28;20049;-85
2022/12/06 01:02:15;;;;;;;15.27;10.55;;;;;;;;;;4992732;28;20027;-82
2022/12/06 01:04:42;;;;;;;13.68;9.13;;;;;;;;;;4992947;28;20054;-83
2022/12/06 01:07:08;;;;;;;15.07;9.80;;;;;;;;;;4996163;28;20049;-82
2022/12/06 01:09:34;;;;;;;12.25;8.82;;;;;;;;;;4996008;28;20022;-85
2022/12/06 01:12:00;;;;;;;14.27;10.20;;;;;;;;;;4996129;28;20193;-83
2022/12/06 01:14:26;;;;;;;16.10;10.45;;;;;;;;;;4995966;28;20023;-84
2022/12/06 01:16:52;;;;;;;13.63;9.45;;;;;;;;;;4978373;28;20125;-82
2022/12/06 01:19:18;;;;;;;20.42;11.13;;;;;;;;;;4995992;28;20036;-84
2022/12/06 01:21:44;;;;;;;17.30;10.20;;;;;;;;;;4995745;28;20030;-84
2022/12/06 01:24:10;;;;;;;15.10;9.82;;;;;;;;;;4995930;28;20034;-82
2022/12/06 01:26:36;;;;;;;14.85;9.85;;;;;;;;;;4995644;28;20061;-84
2022/12/06 01:29:02;;;;;;;16.88;10.18;;;;;;;;;;4995875;28;20022;-81
2022/12/06 01:31:29;;;;;;;13.77;9.32;;;;;;;;;;4995779;28;20031;-84
2022/12/06 01:33:55;;;;;;;12.75;9.35;;;;;;;;;;4994365;28;20019;-82
2022/12/06 01:36:25;;;;;;;12.15;8.77;;;;;;;;;;4995610;28;20054;-82
2022/12/06 01:38:52;;;;;;;12.95;9.10;;;;;;;;;;4995354;28;20120;-84
2022/12/06 01:41:19;;;;;;;15.88;9.00;;;;;;;;;;4995617;28;20026;-83
2022/12/06 01:43:45;;;;;;;12.70;8.80;;;;;;;;;;4995195;28;20077;-83
2022/12/06 01:46:30;;;;;;;14.25;8.90;;;;;;;;;;4995309;28;20040;-84
2022/12/06 01:49:08;;;;;;;11.10;8.18;;;;;;;;;;4995382;28;20015;-84
2022/12/06 01:51:34;;;;;;;10.98;7.88;;;;;;;;;;4995377;28;20025;-83
2022/12/06 01:54:01;;;;;;;11.82;7.97;;;;;;;;;;4995331;28;20083;-82
2022/12/06 01:56:28;;;;;;;10.82;8.40;;;;;;;;;;4995283;28;20026;-84
2022/12/06 01:58:56;;;;;;;14.95;8.13;;;;;;;;;;4994022;28;20437;-82
2022/12/06 02:01:22;;;;;;;13.02;8.85;;;;;;;;;;4995063;28;20027;-83
2022/12/06 02:03:48;;;;;;;14.15;8.98;;;;;;;;;;4995089;28;20552;-85
2022/12/06 02:06:15;;;;;;;12.43;8.65;;;;;;;;;;4995045;28;20030;-83
2022/12/06 02:08:41;;;;;;;13.75;8.77;;;;;;;;;;4995275;28;20046;-83
2022/12/06 02:11:08;;;;;;;12.65;8.63;;;;;;;;;;4994947;28;20444;-84
2022/12/06 02:13:35;;;;;;;12.07;8.88;;;;;;;;;;4994984;28;20030;-82
2022/12/06 02:16:11;;;;;;;14.27;9.23;;;;;;;;;;4994593;28;20042;-83
2022/12/06 02:18:40;;;;;;;13.45;9.02;;;;;;;;;;4993675;28;20406;-83
2022/12/06 02:21:24;;;;;;;12.55;8.98;;;;;;;;;;4994706;28;20058;-83
2022/12/06 02:24:02;;;;;;;13.23;9.52;;;;;;;;;;4994746;28;20466;-82
2022/12/06 02:26:47;;;;;;;14.38;10.02;;;;;;;;;;4994683;28;20038;-84
2022/12/06 02:29:32;;;;;;;15.52;9.73;;;;;;;;;;4994779;28;20026;-83
2022/12/06 02:32:00;;;;;;;14.00;9.23;;;;;;;;;;4994658;28;20023;-83
2022/12/06 02:34:29;;;;;;;16.20;10.23;;;;;;;;;;4994466;28;20414;-84
2022/12/06 02:37:09;;;;;;;13.07;8.70;;;;;;;;;;4994614;28;20402;-82
2022/12/06 02:39:41;;;;;;;14.40;9.88;;;;;;;;;;4994509;28;20030;-82
2022/12/06 02:42:30;;;;;;;13.90;9.10;;;;;;;;;;4994233;28;20092;-83
2022/12/06 02:44:59;;;;;;;11.57;8.07;;;;;;;;;;4986409;28;20038;-81
2022/12/06 02:47:29;;;;;;;15.20;12.15;;;;;;;;;;4994252;28;20053;-83
2022/12/06 02:49:56;;;;;;;14.00;9.48;;;;;;;;;;4993992;28;20049;-83
2022/12/06 02:52:24;;;;;;;11.93;8.38;;;;;;;;;;4994320;28;20023;-83
2022/12/06 02:54:52;;;;;;;13.82;9.98;;;;;;;;;;4992850;28;20389;-82
2022/12/06 02:57:19;;;;;;;14.02;9.05;;;;;;;;;;4992982;28;20027;-82
2022/12/06 02:59:52;;;;;;;14.57;9.35;;;;;;;;;;4993979;28;20026;-84
2022/12/06 03:02:18;;;;;;;12.52;8.48;;;;;;;;;;4993982;28;20030;-82
2022/12/06 03:04:48;;;;;;;15.88;10.07;;;;;;;;;;4993866;28;20042;-83
2022/12/06 03:07:26;;;;;;;12.35;9.23;;;;;;;;;;4993874;28;20033;-84
2022/12/06 03:09:52;;;;;;;12.30;8.48;;;;;;;;;;4993863;28;20030;-84
2022/12/06 03:12:24;;;;;;;13.85;9.10;;;;;;;;;;4992526;28;20022;-83
2022/12/06 03:14:59;;;;;;;13.32;9.50;;;;;;;;;;4993930;28;20105;-84
2022/12/06 03:17:32;;;;;;;16.60;10.70;;;;;;;;;;4992282;28;20073;-83
2022/12/06 03:20:02;;;;;;;13.95;10.18;;;;;;;;;;4976299;28;20046;-84
2022/12/06 03:22:35;;;;;;;13.15;8.55;;;;;;;;;;4993740;28;20097;-83
2022/12/06 03:25:08;;;;;;;15.38;8.70;;;;;;;;;;4993590;28;20030;-82
2022/12/06 03:27:35;;;;;;;13.10;8.73;;;;;;;;;;4993334;28;20031;-83
2022/12/06 03:30:03;;;;;;;11.93;9.10;;;;;;;;;;4992871;28;20485;-82
2022/12/06 03:32:31;;;;;;;11.30;8.13;;;;;;;;;;4993532;28;20430;-82
2022/12/06 03:34:59;;;;;;;12.93;9.02;;;;;;;;;;4993346;28;20109;-84
2022/12/06 03:37:27;;;;;;;15.07;10.38;;;;;;;;;;4993493;28;20034;-83
2022/12/06 03:39:56;;;;;;;14.75;9.27;;;;;;;;;;4993343;28;20026;-83
2022/12/06 03:42:22;;;;;;;15.68;10.05;;;;;;;;;;4993488;28;20130;-82
2022/12/06 03:44:48;;;;;;;14.77;9.68;;;;;;;;;;4993357;28;20533;-83
2022/12/06 03:47:17;;;;;;;14.20;9.63;;;;;;;;;;4993110;28;20490;-82
2022/12/06 03:50:04;;;;;;;14.25;9.15;;;;;;;;;;4993287;28;20030;-83
2022/12/06 03:52:32;;;;;;;14.90;9.07;;;;;;;;;;4993353;28;20018;-82
2022/12/06 03:54:59;;;;;;;19.02;10.30;;;;;;;;;;4992042;28;20065;-82
2022/12/06 03:57:25;;;;;;;13.90;10.07;;;;;;;;;;4993248;28;20088;-83
2022/12/06 03:59:51;;;;;;;14.52;9.55;;;;;;;;;;4993091;28;20389;-82
2022/12/06 04:02:17;;;;;;;17.67;13.05;;;;;;;;;;4993213;28;20152;-81
2022/12/06 04:04:43;;;;;;;19.83;14.10;;;;;;;;;;4992603;28;20053;-84
2022/12/06 04:07:10;;;;;;;18.30;13.05;;;;;;;;;;4993076;28;20030;-82
2022/12/06 04:15:05;;;;;;;15.55;11.07;;;;;;;;;;4993102;28;20130;-82
2022/12/06 04:20:16;;;;;;;17.08;12.40;;;;;;;;;;4992739;28;20501;-81
2022/12/06 04:25:27;;;;;;;14.15;10.27;;;;;;;;;;4993087;28;20107;-82
2022/12/06 04:38:52;;;;;;;21.15;14.63;;;;;;;;;;4992537;28;20041;-82
2022/12/06 04:44:03;;;;;;;17.30;11.05;;;;;;;;;;4996274;28;20038;-83
2022/12/06 04:46:29;;;;;;;13.75;9.65;;;;;;;;;;4996177;28;20023;-82
2022/12/06 04:48:56;;;;;;;18.67;11.18;;;;;;;;;;4996496;28;20038;-83
2022/12/06 04:51:22;;;;;;;14.93;10.48;;;;;;;;;;4996233;28;20535;-83
2022/12/06 04:53:48;;;;;;;14.65;10.57;;;;;;;;;;4996184;28;20099;-84
2022/12/06 04:56:14;;;;;;;14.23;10.23;;;;;;;;;;4995537;28;20041;-84
2022/12/06 04:58:41;;;;;;;15.82;10.70;;;;;;;;;;4996101;28;20050;-83
2022/12/06 05:01:08;;;;;;;15.13;10.40;;;;;;;;;;4994815;28;20109;-83
2022/12/06 05:03:34;;;;;;;13.25;9.68;;;;;;;;;;4994870;28;20050;-83
2022/12/06 05:06:00;;;;;;;15.20;10.70;;;;;;;;;;4995355;28;20018;-83
2022/12/06 05:08:26;;;;;;;14.70;11.05;;;;;;;;;;4995841;28;20107;-82
2022/12/06 05:10:52;;;;;;;12.77;9.07;;;;;;;;;;4995342;28;20050;-82
2022/12/06 05:13:19;;;;;;;16.67;11.38;;;;;;;;;;4996093;28;20022;-83
2022/12/06 05:16:03;;;;;;;16.50;11.43;;;;;;;;;;4995849;28;20026;-83
2022/12/06 05:18:30;;;;;;;23.50;17.45;;;;;;;;;;4995726;28;20030;-84
2022/12/06 05:21:02;;;;;;;42.22;32.47;;;;;;;;;;4995441;28;20036;-82
2022/12/06 05:23:28;;;;;;;22.63;17.88;;;;;;;;;;4995746;28;20053;-83
2022/12/06 05:25:58;;;;;;;16.33;10.38;;;;;;;;;;4995710;28;20030;-83
2022/12/06 05:28:24;;;;;;;16.95;12.57;;;;;;;;;;5000652;28;20068;-82
2022/12/06 05:30:51;;;;;;;20.83;16.35;;;;;;;;;;5015830;28;20080;-82
2022/12/06 05:33:17;;;;;;;26.17;16.98;;;;;;;;;;5015591;28;20018;-82
2022/12/06 05:35:43;;;;;;;15.68;11.65;;;;;;;;;;5015052;28;20105;-83
2022/12/06 05:38:09;;;;;;;19.02;10.05;;;;;;;;;;5014984;28;20026;-82
2022/12/06 05:40:35;;;;;;;15.60;9.05;;;;;;;;;;5014735;28;20489;-83
2022/12/06 05:43:01;;;;;;;12.93;9.00;;;;;;;;;;5014906;28;20072;-82
2022/12/06 05:45:27;;;;;;;15.30;9.90;;;;;;;;;;5014929;28;20083;-82
2022/12/06 05:47:53;;;;;;;14.75;9.55;;;;;;;;;;5014600;28;20041;-82
2022/12/06 05:50:19;;;;;;;13.60;10.77;;;;;;;;;;5014521;28;20052;-82
2022/12/06 05:52:45;;;;;;;13.13;9.75;;;;;;;;;;5013656;28;20029;-82
2022/12/06 05:55:12;;;;;;;13.48;9.95;;;;;;;;;;5014134;28;20032;-82
2022/12/06 05:57:41;;;;;;;18.58;10.50;;;;;;;;;;5014276;28;20026;-83
2022/12/06 06:00:08;;;;;;;14.25;9.57;;;;;;;;;;5003788;28;20080;-82
2022/12/06 06:02:34;;;;;;;14.10;9.45;;;;;;;;;;5013681;28;20018;-82
2022/12/06 06:05:01;;;;;;;17.60;12.45;;;;;;;;;;5024837;28;20037;-82
2022/12/06 06:07:28;;;;;;;14.13;10.43;;;;;;;;;;5005283;28;20022;-82
2022/12/06 06:09:54;;;;;;;17.27;12.35;;;;;;;;;;5023356;28;20024;-82
2022/12/06 06:12:20;;;;;;;15.50;10.60;;;;;;;;;;5024716;28;20512;-82
2022/12/06 06:14:46;;;;;;;13.23;9.30;;;;;;;;;;5025660;28;20025;-82
2022/12/06 06:17:12;;;;;;;15.07;8.95;;;;;;;;;;5023568;28;20061;-81
2022/12/06 06:19:39;;;;;;;12.38;8.93;;;;;;;;;;5007143;28;20044;-79
2022/12/06 06:22:05;;;;;;;17.50;11.73;;;;;;;;;;5022466;28;20029;-81
2022/12/06 06:24:38;;;;;;;15.85;11.00;;;;;;;;;;5021651;28;20097;-80
2022/12/06 06:27:04;;;;;;;17.65;10.15;;;;;;;;;;4999287;28;20381;-81
2022/12/06 06:29:30;;;;;;;30.42;14.68;;;;;;;;;;5021159;28;20021;-82
2022/12/06 06:31:57;;;;;;;55.35;35.20;;;;;;;;;;5017749;28;20017;-81
2022/12/06 06:34:23;;;;;;;27.30;14.93;;;;;;;;;;5017959;28;20713;-85
2022/12/06 06:36:49;;;;;;;23.98;16.95;;;;;;;;;;5022054;28;20026;-82
2022/12/06 06:39:17;;;;;;;16.73;10.05;;;;;;;;;;5021612;28;20040;-80
2022/12/06 06:41:43;;;;;;;14.52;9.60;;;;;;;;;;5022466;28;20033;-81
2022/12/06 06:44:09;;;;;;;15.20;10.35;;;;;;;;;;5015448;28;20025;-80
2022/12/06 06:46:35;;;;;;;14.60;9.82;;;;;;;;;;5016311;28;20038;-79
2022/12/06 06:49:01;;;;;;;13.25;7.90;;;;;;;;;;5022540;28;20062;-80
2022/12/06 06:51:27;;;;;;;12.32;8.10;;;;;;;;;;5021221;28;20378;-80
2022/12/06 06:53:58;;;;;;;11.63;8.48;;;;;;;;;;5021945;28;20033;-80
2022/12/06 06:56:25;;;;;;;12.07;8.20;;;;;;;;;;4998693;28;20132;-82
2022/12/06 06:58:51;;;;;;;16.02;10.25;;;;;;;;;;5021054;28;20385;-86
2022/12/06 07:01:18;;;;;;;14.02;9.25;;;;;;;;;;5007985;28;20493;-82
2022/12/06 07:03:45;;;;;;;14.05;10.65;;;;;;;;;;4992199;28;20038;-84
2022/12/06 07:06:16;;;;;;;13.77;8.82;;;;;;;;;;5018738;28;20026;-84
2022/12/06 07:08:42;;;;;;;14.65;9.73;;;;;;;;;;4998476;28;20053;-82
2022/12/06 07:11:09;;;;;;;16.10;9.80;;;;;;;;;;5022470;28;20049;-79
2022/12/06 07:13:37;;;;;;;18.65;10.82;;;;;;;;;;5020870;28;20037;-82
2022/12/06 07:16:04;;;;;;;11.90;7.57;;;;;;;;;;5000795;28;20025;-81
2022/12/06 07:18:30;;;;;;;14.05;7.97;;;;;;;;;;5024882;28;20050;-81
2022/12/06 07:21:14;;;;;;;33.60;26.70;;;;;;;;;;5003132;28;20037;-79
2022/12/06 07:23:40;;;;;;;78.85;65.47;;;;;;;;;;5011447;28;20030;-80
2022/12/06 07:26:11;;;;;;;33.25;25.65;;;;;;;;;;5011435;28;20018;-85
2022/12/06 07:28:38;;;;;;;16.33;12.07;;;;;;;;;;5011920;28;20026;-80
2022/12/06 07:31:15;;;;;;;14.68;9.20;;;;;;;;;;5011673;28;20041;-80
2022/12/06 07:33:41;;;;;;;12.38;8.10;;;;;;;;;;4993136;28;20664;-83
2022/12/06 07:36:08;;;;;;;14.57;9.25;;;;;;;;;;5020198;28;20072;-79
2022/12/06 07:38:34;;;;;;;12.00;8.38;;;;;;;;;;5022867;28;20057;-81
2022/12/06 07:44:59;;;;;;;11.43;8.20;;;;;;;;;;5011536;28;20037;-81
2022/12/06 07:46:37;;;;;;;12.70;8.77;;;;;;;;;;5008967;28;20157;-83
2022/12/06 07:49:03;;;;;;;17.67;9.75;;;;;;;;;;5011553;28;20022;-81
2022/12/06 07:51:30;;;;;;;12.68;9.52;;;;;;;;;;5010795;28;20556;-82
2022/12/06 07:53:56;;;;;;;14.32;12.02;;;;;;;;;;5011572;28;20026;-82
2022/12/06 07:56:22;;;;;;;9.38;7.00;;;;;;;;;;5010968;28;20030;-80
2022/12/06 07:58:49;;;;;;;11.93;7.47;;;;;;;;;;5011341;28;20028;-82
2022/12/06 08:01:15;;;;;;;13.75;8.05;;;;;;;;;;5021604;28;20081;-80
2022/12/06 08:03:41;;;;;;;13.05;8.07;;;;;;;;;;5007080;28;20045;-83
2022/12/06 08:06:07;;;;;;;9.98;7.10;;;;;;;;;;5011063;28;20025;-82
2022/12/06 08:08:34;;;;;;;10.20;6.82;;;;;;;;;;5026337;28;20093;-82
2022/12/06 08:11:00;;;;;;;10.15;6.93;;;;;;;;;;5010856;28;20026;-84
2022/12/06 08:13:27;;;;;;;15.85;7.22;;;;;;;;;;5019407;28;20097;-80
2022/12/06 08:15:53;;;;;;;10.50;7.05;;;;;;;;;;5020487;28;20078;-82
2022/12/06 08:18:19;;;;;;;18.73;8.52;;;;;;;;;;5022138;28;20370;-83
2022/12/06 08:20:45;;;;;;;31.20;12.60;;;;;;;;;;5025112;28;20040;-81
2022/12/06 08:23:11;;;;;;;19.65;10.32;;;;;;;;;;5031430;28;20478;-82
2022/12/06 08:25:37;;;;;;;37.58;13.77;;;;;;;;;;5017455;28;20029;-85
2022/12/06 08:28:04;;;;;;;23.02;10.35;;;;;;;;;;5017796;28;20069;-81
2022/12/06 08:30:30;;;;;;;36.58;13.90;;;;;;;;;;5017166;28;20022;-82
2022/12/06 08:32:56;;;;;;;18.30;8.82;;;;;;;;;;5017150;28;20029;-85
2022/12/06 08:35:22;;;;;;;20.45;9.65;;;;;;;;;;5001707;28;20104;-84
2022/12/06 08:37:48;;;;;;;33.70;12.52;;;;;;;;;;5034265;28;20033;-86
2022/12/06 08:40:14;;;;;;;33.55;12.95;;;;;;;;;;5022925;28;20029;-81
2022/12/06 08:42:44;;;;;;;16.52;8.57;;;;;;;;;;5008494;28;20029;-86
2022/12/06 08:45:11;;;;;;;18.38;7.03;;;;;;;;;;5017136;28;20408;-87
2022/12/06 08:47:37;;;;;;;25.75;13.52;;;;;;;;;;5019075;28;20053;-84
2022/12/06 08:50:04;;;;;;;95.57;61.63;;;;;;;;;;5037264;28;20033;-82
2022/12/06 08:52:30;;;;;;;49.20;17.85;;;;;;;;;;5006597;28;20089;-83
2022/12/06 08:54:56;;;;;;;25.55;11.68;;;;;;;;;;5017418;28;20081;-83
2022/12/06 08:57:22;;;;;;;20.63;8.43;;;;;;;;;;4997552;28;20034;-83
2022/12/06 08:59:49;;;;;;;25.80;12.65;;;;;;;;;;5013143;28;20038;-83
2022/12/06 09:02:15;;;;;;;24.67;9.25;;;;;;;;;;5014916;28;20033;-82
2022/12/06 09:04:41;;;;;;;18.55;7.60;;;;;;;;;;5021857;28;20049;-83
2022/12/06 09:07:08;;;;;;;21.13;9.07;;;;;;;;;;5026244;28;20515;-84
2022/12/06 09:09:34;;;;;;;10.30;5.00;;;;;;;;;;5013907;28;20025;-87
2022/12/06 09:12:00;;;;;;;10.20;4.38;;;;;;;;;;5017029;28;20480;-83
2022/12/06 09:14:26;;;;;;;17.33;5.68;;;;;;;;;;4998791;28;20037;-81
2022/12/06 09:16:54;;;;;;;13.32;5.75;;;;;;;;;;5018767;28;20654;-85
2022/12/06 09:19:20;;;;;;;9.05;4.65;;;;;;;;;;5016910;28;20043;-83
2022/12/06 09:21:47;;;;;;;37.38;12.82;;;;;;;;;;5014891;28;20408;-86
2022/12/06 09:24:14;;;;;;;52.08;15.93;;;;;;;;;;5009452;28;20496;-87
2022/12/06 09:26:40;;;;;;;29.27;9.35;;;;;;;;;;5022069;28;20062;-79
2022/12/06 09:29:07;;;;;;;26.27;8.77;;;;;;;;;;5015727;28;20473;-83
2022/12/06 09:31:38;;;;;;;46.30;13.88;;;;;;;;;;5014118;28;20080;-82
2022/12/06 09:34:04;;;;;;;45.92;12.95;;;;;;;;;;5023008;28;20100;-84
2022/12/06 09:36:30;;;;;;;60.80;18.30;;;;;;;;;;5013947;28;20033;-85
2022/12/06 09:38:56;;;;;;;36.38;13.40;;;;;;;;;;5010219;28;20033;-83
2022/12/06 09:41:28;;;;;;;99.57;30.70;;;;;;;;;;4996125;28;20034;-85
2022/12/06 09:43:54;;;;;;;62.22;21.77;;;;;;;;;;5011371;28;20532;-84
2022/12/06 09:46:20;;;;;;;26.85;9.05;;;;;;;;;;4986866;28;20076;-80
2022/12/06 09:49:05;;;;;;;11.55;4.43;;;;;;;;;;5013456;28;20026;-85
2022/12/06 09:51:39;;;;;;;13.40;7.03;;;;;;;;;;4995045;28;20108;-83
2022/12/06 09:54:23;;;;;;;11.93;6.00;;;;;;;;;;5011432;28;21719;-85
2022/12/06 09:56:49;;;;;;;;;;;;;;;;;;5003879;28;20268;-79
2022/12/06 09:59:34;;;;;;;48.67;17.20;;;;;;;;;;5005451;28;20424;-84
2022/12/06 10:02:03;;;;;;;38.85;15.18;;;;;;;;;;4995054;28;20038;-76
2022/12/06 10:04:48;;;;;;;15.70;6.78;;;;;;;;;;5017145;28;20053;-82
2022/12/06 10:07:14;;;;;;;;;;;;;;;;;;5010590;28;20029;-81
2022/12/06 10:09:59;;;;;;;4.72;2.95;;;;;;;;;;5004596;28;20004;-83
2022/12/06 10:12:25;;;;;;;10.57;4.80;;;;;;;;;;5007218;28;20033;-80
2022/12/06 10:14:58;;;;;;;13.93;5.55;;;;;;;;;;5011582;28;20030;-80
2022/12/06 10:17:27;;;;;;;12.25;5.57;;;;;;;;;;5011345;28;20030;-81
2022/12/06 10:20:03;;;;;;;30.50;11.93;;;;;;;;;;5011507;28;20092;-81
2022/12/06 10:22:29;;;;;;;13.10;4.60;;;;;;;;;;5017152;28;20100;-83
2022/12/06 10:25:02;;;;;;;21.90;9.15;;;;;;;;;;5012739;28;20066;-81
2022/12/06 10:27:28;;;;;;;18.30;8.05;;;;;;;;;;5017902;28;20092;-79
2022/12/06 10:29:57;;;;;;;19.25;8.15;;;;;;;;;;5012184;28;20022;-81
2022/12/06 10:32:29;;;;;;;25.27;9.23;;;;;;;;;;4990574;28;20088;-80
2022/12/06 10:35:03;;;;;;;34.10;13.77;;;;;;;;;;5010136;28;20105;-81
2022/12/06 10:37:39;;;;;;;54.78;20.45;;;;;;;;;;5008375;28;20076;-83
2022/12/06 10:40:28;;;;;;;46.25;17.80;;;;;;;;;;5031494;28;20030;-84
2022/12/06 10:43:02;;;;;;;264.13;82.43;;;;;;;;;;5004798;28;20037;-82
2022/12/06 10:48:27;;;;;;;294.90;101.57;;;;;;;;;;5012179;28;20103;-79
2022/12/06 10:51:03;;;;;;;267.33;91.88;;;;;;;;;;5011470;28;20037;-79
2022/12/06 10:53:32;;;;;;;412.83;142.00;;;;;;;;;;5012219;28;20018;-79
2022/12/06 10:56:02;;;;;;;70.22;28.17;;;;;;;;;;5012166;28;20072;-82
2022/12/06 10:58:34;;;;;;;310.70;107.40;;;;;;;;;;5023871;28;20033;-81
2022/12/06 11:01:02;;;;;;;258.67;102.75;;;;;;;;;;5028680;28;20022;-79
2022/12/06 11:03:47;;;;;;;33.72;18.33;;;;;;;;;;5012000;28;20100;-82
2022/12/06 11:06:32;;;;;;;19.10;9.43;;;;;;;;;;5011014;28;20048;-82
2022/12/06 11:09:04;;;;;;;7.95;5.28;;;;;;;;;;4993537;28;20049;-80
2022/12/06 11:11:32;;;;;;;5.95;4.00;;;;;;;;;;4998191;28;20018;-82
2022/12/06 11:14:17;;;;;;;6.97;4.95;;;;;;;;;;4993590;28;20030;-86
2022/12/06 11:16:43;;;;;;;;;;;;;;;;;;5002276;28;20115;-81
2022/12/06 11:19:16;;;;;;;6.40;3.72;;;;;;;;;;5003190;28;19913;-82
2022/12/06 11:21:49;;;;;;;6.97;4.60;;;;;;;;;;4993780;28;20026;-81
2022/12/06 11:24:30;;;;;;;11.80;6.83;;;;;;;;;;5012285;28;20034;-83
2022/12/06 11:27:15;;;;;;;10.27;5.60;;;;;;;;;;5014801;28;20114;-83
2022/12/06 11:29:47;;;;;;;7.78;4.28;;;;;;;;;;5011477;28;20058;-82
2022/12/06 11:32:14;;;;;;;15.43;9.18;;;;;;;;;;5010599;28;20018;-80
2022/12/06 11:34:46;;;;;;;7.18;5.30;;;;;;;;;;5017758;28;20026;-81
2022/12/06 11:37:17;;;;;;;6.90;5.43;;;;;;;;;;4992460;28;20029;-83
2022/12/06 11:39:44;;;;;;;7.20;4.10;;;;;;;;;;5009415;28;20029;-83
2022/12/06 11:42:12;;;;;;;11.25;6.78;;;;;;;;;;5015370;28;20021;-85
2022/12/06 11:44:42;;;;;;;11.38;7.25;;;;;;;;;;5010604;28;20043;-84
2022/12/06 11:47:11;;;;;;;6.43;4.75;;;;;;;;;;5007597;28;20090;-84
2022/12/06 11:49:39;;;;;;;7.57;3.47;;;;;;;;;;5010850;28;20058;-84
2022/12/06 11:52:12;;;;;;;4.38;2.75;;;;;;;;;;5011080;28;20103;-82
2022/12/06 11:54:41;;;;;;;5.85;3.30;;;;;;;;;;5011947;28;20105;-83
2022/12/06 11:57:35;;;;;;;6.22;3.25;;;;;;;;;;5009901;28;20102;-82
2022/12/06 12:00:11;;;;;;;5.15;2.95;;;;;;;;;;4982924;28;20096;-81
2022/12/06 12:02:37;;;;;;;5.45;3.17;;;;;;;;;;5009407;28;20026;-80
2022/12/06 12:05:22;;;;;;;10.45;6.82;;;;;;;;;;5005092;28;20552;-83
2022/12/06 12:07:51;;;;;;;8.27;4.65;;;;;;;;;;5009239;28;20490;-82
2022/12/06 12:10:37;;;;;;;9.20;4.35;;;;;;;;;;5007076;28;20025;-83
2022/12/06 12:15:59;;;;;;;9.57;5.15;;;;;;;;;;5010239;28;20524;-81
2022/12/06 12:18:28;;;;;;;22.85;9.27;;;;;;;;;;5010651;28;20116;-81
2022/12/06 12:20:54;;;;;;;14.95;7.40;;;;;;;;;;5021982;28;20037;-81
2022/12/06 12:23:32;;;;;;;26.45;11.25;;;;;;;;;;5008586;28;20049;-81
2022/12/06 12:26:01;;;;;;;41.72;25.02;;;;;;;;;;5017369;28;20063;-87
2022/12/06 12:28:27;;;;;;;36.28;27.02;;;;;;;;;;5007581;28;20386;-78
2022/12/06 12:30:55;;;;;;;11.60;7.15;;;;;;;;;;5011404;28;20716;-82
2022/12/06 12:33:25;;;;;;;12.25;7.20;;;;;;;;;;5001480;28;20015;-82
2022/12/06 12:35:56;;;;;;;7.90;6.43;;;;;;;;;;5007251;28;20551;-82
2022/12/06 12:38:38;;;;;;;25.92;17.00;;;;;;;;;;5011861;28;20120;-82
2022/12/06 12:41:36;;;;;;;15.93;8.25;;;;;;;;;;5004726;28;20110;-82
2022/12/06 12:44:21;;;;;;;8.48;4.25;;;;;;;;;;4949889;28;20512;-82
2022/12/06 12:46:53;;;;;;;12.07;5.63;;;;;;;;;;5000153;28;20058;-82
2022/12/06 12:49:27;;;;;;;9.10;4.35;;;;;;;;;;5003880;28;20028;-83
2022/12/06 12:51:57;;;;;;;10.27;5.87;;;;;;;;;;5008182;28;20520;-81
2022/12/06 12:54:33;;;;;;;21.52;10.75;;;;;;;;;;5006492;28;20267;-84
2022/12/06 12:57:01;;;;;;;16.33;7.78;;;;;;;;;;5005998;28;20033;-83
2022/12/06 12:59:31;;;;;;;8.73;4.32;;;;;;;;;;5005446;28;20038;-81
2022/12/06 13:01:58;;;;;;;11.45;6.00;;;;;;;;;;5008522;28;20030;-84
2022/12/06 13:04:29;;;;;;;10.05;5.82;;;;;;;;;;5004893;28;20124;-80
2022/12/06 13:07:14;;;;;;;12.05;5.97;;;;;;;;;;5002669;28;20026;-80
2022/12/06 13:09:44;;;;;;;9.02;5.38;;;;;;;;;;4983991;28;20485;-80
2022/12/06 13:12:18;;;;;;;12.77;5.88;;;;;;;;;;5010901;28;20029;-81
2022/12/06 13:14:50;;;;;;;15.68;10.07;;;;;;;;;;5025409;28;20084;-79
2022/12/06 13:17:17;;;;;;;15.88;8.77;;;;;;;;;;5017209;28;20500;-80
2022/12/06 13:19:46;;;;;;;19.98;10.50;;;;;;;;;;5015306;28;20068;-81
2022/12/06 13:22:15;;;;;;;12.02;6.25;;;;;;;;;;5012515;28;20548;-80
2022/12/06 13:24:42;;;;;;;10.73;4.82;;;;;;;;;;5013712;28;20404;-80
2022/12/06 13:27:14;;;;;;;8.07;4.03;;;;;;;;;;5014825;28;20537;-77
2022/12/06 13:29:41;;;;;;;12.75;6.65;;;;;;;;;;5014359;28;20069;-76
2022/12/06 13:32:28;;;;;;;8.00;4.25;;;;;;;;;;5006152;28;20595;-74
2022/12/06 13:34:59;;;;;;;11.07;5.30;;;;;;;;;;5013138;28;20100;-83
2022/12/06 13:37:44;;;;;;;10.70;4.85;;;;;;;;;;5015338;28;20389;-79
2022/12/06 13:40:29;;;;;;;17.92;7.15;;;;;;;;;;5015554;28;20044;-79
2022/12/06 13:42:55;;;;;;;;;;;;;;;;;;4994754;28;20038;-81
2022/12/06 13:45:39;;;;;;;17.13;6.93;;;;;;;;;;5011725;28;19920;-80
2022/12/06 13:48:28;;;;;;;13.07;8.05;;;;;;;;;;5010101;28;20049;-82
2022/12/06 13:50:54;;;;;;;40.15;19.48;;;;;;;;;;4988930;28;20042;-82
2022/12/06 13:53:21;;;;;;;30.70;21.00;;;;;;;;;;4998487;28;20058;-82
2022/12/06 13:55:47;;;;;;;20.73;9.27;;;;;;;;;;5013441;28;20100;-81
2022/12/06 13:58:17;;;;;;;22.58;8.93;;;;;;;;;;5013326;28;20080;-83
2022/12/06 14:00:43;;;;;;;8.68;4.63;;;;;;;;;;5007076;28;20204;-82
2022/12/06 14:03:18;;;;;;;7.10;4.45;;;;;;;;;;4997012;28;20062;-85
2022/12/06 14:05:59;;;;;;;7.40;4.28;;;;;;;;;;5000485;28;20098;-82
2022/12/06 14:08:36;;;;;;;11.93;4.68;;;;;;;;;;4994457;28;20166;-82
2022/12/06 14:11:07;;;;;;;7.95;4.20;;;;;;;;;;5009219;28;20049;-81
2022/12/06 14:13:33;;;;;;;8.02;4.53;;;;;;;;;;4981945;28;20481;-83
2022/12/06 14:16:00;;;;;;;8.75;4.32;;;;;;;;;;4995353;28;20064;-82
2022/12/06 14:18:27;;;;;;;8.23;3.60;;;;;;;;;;4998732;28;20048;-81
2022/12/06 14:20:54;;;;;;;6.55;4.30;;;;;;;;;;4994098;28;20026;-81
2022/12/06 14:23:28;;;;;;;8.27;4.57;;;;;;;;;;4995725;28;20110;-82
2022/12/06 14:26:13;;;;;;;8.07;4.10;;;;;;;;;;5017198;28;20026;-83
2022/12/06 14:28:39;;;;;;;12.45;5.40;;;;;;;;;;5005759;28;20397;-83
2022/12/06 14:31:06;;;;;;;6.50;4.20;;;;;;;;;;5001996;28;20030;-85
2022/12/06 14:33:32;;;;;;;6.95;4.10;;;;;;;;;;5009958;28;20101;-83
2022/12/06 14:35:58;;;;;;;7.35;4.93;;;;;;;;;;5016533;28;20030;-83
2022/12/06 14:38:27;;;;;;;11.60;5.57;;;;;;;;;;4995298;28;20038;-83
2022/12/06 14:43:38;;;;;;;26.73;16.95;;;;;;;;;;5002440;28;20053;-83
2022/12/06 14:46:06;;;;;;;22.80;17.45;;;;;;;;;;5016435;28;20560;-83
2022/12/06 14:51:23;;;;;;;30.05;17.98;;;;;;;;;;5013238;28;20033;-84
2022/12/06 14:53:50;;;;;;;26.67;18.48;;;;;;;;;;5014879;28;20084;-83
2022/12/06 14:56:22;;;;;;;9.75;6.80;;;;;;;;;;5004724;28;20033;-84
2022/12/06 14:58:48;;;;;;;15.50;8.93;;;;;;;;;;4995065;28;20489;-85
2022/12/06 15:01:19;;;;;;;13.98;8.00;;;;;;;;;;5013551;28;20026;-82
2022/12/06 15:03:56;;;;;;;10.15;6.25;;;;;;;;;;5013037;28;20056;-85
2022/12/06 15:06:23;;;;;;;9.80;6.50;;;;;;;;;;5013156;28;20515;-84
2022/12/06 15:08:50;;;;;;;10.60;5.80;;;;;;;;;;5002560;28;20472;-85
2022/12/06 15:14:14;;;;;;;9.52;6.55;;;;;;;;;;5012955;28;20052;-84
2022/12/06 15:16:41;;;;;;;11.82;6.82;;;;;;;;;;4996737;28;20069;-84
2022/12/06 15:19:28;;;;;;;10.85;7.28;;;;;;;;;;5012566;28;20048;-84
2022/12/06 15:21:54;;;;;;;7.90;5.65;;;;;;;;;;5013077;28;20026;-84
2022/12/06 15:24:21;;;;;;;8.85;5.75;;;;;;;;;;5001741;28;20106;-84